createdAt,value
2022-09-15T00:01:40.935Z,52.50
2022-09-15T00:04:07.444Z,52.40
2022-09-15T00:06:33.947Z,52.30
2022-09-15T00:09:04.153Z,52.30
2022-09-15T00:11:30.617Z,52.30
2022-09-15T00:13:57.080Z,52.40
2022-09-15T00:16:28.315Z,52.40
2022-09-15T00:18:54.853Z,52.40
2022-09-15T00:21:21.324Z,52.40
2022-09-15T00:23:47.803Z,52.40
2022-09-15T00:26:14.289Z,52.30
2022-09-15T00:28:40.816Z,52.40
2022-09-15T00:31:16.336Z,52.40
2022-09-15T00:33:46.163Z,52.30
2022-09-15T00:36:12.627Z,52.30
2022-09-15T00:38:39.127Z,52.40
2022-09-15T00:41:05.631Z,52.40
2022-09-15T00:43:32.121Z,52.30
2022-09-15T00:45:58.611Z,52.40
2022-09-15T00:48:25.103Z,52.40
2022-09-15T00:50:51.581Z,52.40
2022-09-15T00:53:18.071Z,52.30
2022-09-15T00:55:46.138Z,52.30
2022-09-15T00:58:12.595Z,52.40
2022-09-15T01:00:39.066Z,52.40
2022-09-15T01:03:05.554Z,52.50
2022-09-15T01:05:40.231Z,52.40
2022-09-15T01:08:10.204Z,52.40
2022-09-15T01:10:36.680Z,52.30
2022-09-15T01:13:03.155Z,52.30
2022-09-15T01:15:34.215Z,52.40
2022-09-15T01:18:00.677Z,52.20
2022-09-15T01:20:27.136Z,52.30
2022-09-15T01:22:58.217Z,52.40
2022-09-15T01:25:24.667Z,52.40
2022-09-15T01:27:52.220Z,52.30
2022-09-15T01:30:18.691Z,52.40
2022-09-15T01:32:45.173Z,52.30
2022-09-15T01:35:28.407Z,52.30
2022-09-15T01:37:58.226Z,52.30
2022-09-15T01:40:24.771Z,52.30
2022-09-15T01:42:51.308Z,52.20
2022-09-15T01:45:28.340Z,52.20
2022-09-15T01:50:45.300Z,52.30
2022-09-15T01:53:11.768Z,52.40
2022-09-15T01:55:52.367Z,52.20
2022-09-15T01:58:22.232Z,52.30
2022-09-15T02:00:48.708Z,52.20
2022-09-15T02:03:15.196Z,52.20
2022-09-15T02:05:41.650Z,52.20
2022-09-15T02:08:08.113Z,52.20
2022-09-15T02:10:34.604Z,52.20
2022-09-15T02:13:01.070Z,52.20
2022-09-15T02:15:27.539Z,52.30
2022-09-15T02:17:54.012Z,52.20
2022-09-15T02:20:22.216Z,52.20
2022-09-15T02:22:48.730Z,52.20
2022-09-15T02:25:15.201Z,52.30
2022-09-15T02:27:41.696Z,52.30
2022-09-15T02:30:08.174Z,52.20
2022-09-15T02:32:34.678Z,52.20
2022-09-15T02:35:10.297Z,52.20
2022-09-15T02:37:36.773Z,52.20
2022-09-15T02:40:03.298Z,52.20
2022-09-15T02:42:29.808Z,52.10
2022-09-15T02:44:56.282Z,52.20
2022-09-15T02:47:22.770Z,52.10
2022-09-15T02:49:49.230Z,52.10
2022-09-15T02:52:15.726Z,52.20
2022-09-15T02:54:42.189Z,52.20
2022-09-15T02:57:10.291Z,52.20
2022-09-15T02:59:36.779Z,52.30
2022-09-15T03:02:03.302Z,52.20
2022-09-15T03:04:29.777Z,52.30
2022-09-15T03:06:56.253Z,52.30
2022-09-15T03:09:28.304Z,52.20
2022-09-15T03:11:54.780Z,52.20
2022-09-15T03:17:12.324Z,52.30
2022-09-15T03:19:40.247Z,52.50
2022-09-15T03:22:06.730Z,52.30
2022-09-15T03:24:33.206Z,52.20
2022-09-15T03:26:59.701Z,52.10
2022-09-15T03:29:26.160Z,52.10
2022-09-15T03:31:52.670Z,52.20
2022-09-15T03:34:19.168Z,52.10
2022-09-15T03:36:45.672Z,52.30
2022-09-15T03:39:12.142Z,52.10
2022-09-15T03:41:40.326Z,52.20
2022-09-15T03:44:06.811Z,52.10
2022-09-15T03:46:33.287Z,52.10
2022-09-15T03:48:59.757Z,52.20
2022-09-15T03:51:28.300Z,52.20
2022-09-15T03:53:54.812Z,52.30
2022-09-15T03:56:21.274Z,52.40
2022-09-15T03:58:47.737Z,52.40
2022-09-15T04:01:14.258Z,52.40
2022-09-15T04:03:50.650Z,52.50
2022-09-15T04:06:17.746Z,52.30
2022-09-15T04:08:44.287Z,52.30
2022-09-15T04:11:10.839Z,52.30
2022-09-15T04:16:28.063Z,52.30
2022-09-15T04:18:54.568Z,52.20
2022-09-15T04:21:21.040Z,52.20
2022-09-15T04:23:52.445Z,52.20
2022-09-15T04:26:18.979Z,52.10
2022-09-15T04:28:45.456Z,52.20
2022-09-15T04:31:11.980Z,52.30
2022-09-15T04:33:38.491Z,52.30
2022-09-15T04:36:04.970Z,52.20
2022-09-15T04:38:34.375Z,52.20
2022-09-15T04:41:00.835Z,52.30
2022-09-15T04:43:27.303Z,52.20
2022-09-15T04:45:53.789Z,52.40
2022-09-15T04:48:20.280Z,52.30
2022-09-15T04:50:46.754Z,52.40
2022-09-15T04:53:16.370Z,52.50
2022-09-15T04:55:46.457Z,52.40
2022-09-15T04:58:12.936Z,52.30
2022-09-15T05:00:39.484Z,52.40
2022-09-15T05:03:05.991Z,52.30
2022-09-15T05:05:32.472Z,52.30
2022-09-15T05:07:58.949Z,52.40
2022-09-15T05:10:25.438Z,52.30
2022-09-15T05:12:51.918Z,52.30
2022-09-15T05:15:18.396Z,52.20
2022-09-15T05:17:44.893Z,52.20
2022-09-15T05:20:11.370Z,52.10
2022-09-15T05:22:41.714Z,52.20
2022-09-15T05:25:08.506Z,52.50
2022-09-15T05:30:37.131Z,52.70
2022-09-15T05:35:56.403Z,52.40
2022-09-15T05:38:28.406Z,52.40
2022-09-15T05:40:54.862Z,52.40
2022-09-15T05:43:21.363Z,52.70
2022-09-15T05:45:47.841Z,52.50
2022-09-15T05:51:05.427Z,52.30
2022-09-15T05:53:31.916Z,52.40
2022-09-15T05:55:58.390Z,52.40
2022-09-15T05:58:24.895Z,52.30
2022-09-15T06:00:51.372Z,52.30
2022-09-15T06:03:17.951Z,52.30
2022-09-15T06:05:46.398Z,52.30
2022-09-15T06:08:16.426Z,52.30
2022-09-15T06:10:46.500Z,52.30
2022-09-15T06:16:04.528Z,52.30
2022-09-15T06:18:31.078Z,52.50
2022-09-15T06:20:58.413Z,52.40
2022-09-15T06:23:24.904Z,52.50
2022-09-15T06:25:52.415Z,52.40
2022-09-15T06:28:18.898Z,52.40
2022-09-15T06:30:45.383Z,52.30
2022-09-15T06:33:16.671Z,52.30
2022-09-15T06:35:43.144Z,52.40
2022-09-15T06:38:09.617Z,52.40
2022-09-15T06:40:36.177Z,52.40
2022-09-15T06:43:04.415Z,52.30
2022-09-15T06:45:30.874Z,52.30
2022-09-15T06:48:20.341Z,52.30
2022-09-15T06:50:43.783Z,52.50
2022-09-15T06:53:10.262Z,52.40
2022-09-15T06:55:36.737Z,52.40
2022-09-15T07:00:58.482Z,52.30
2022-09-15T07:03:25.098Z,52.40
2022-09-15T07:05:51.653Z,52.40
2022-09-15T07:08:18.134Z,52.50
2022-09-15T07:10:44.610Z,52.50
2022-09-15T07:13:11.071Z,52.60
2022-09-15T07:15:37.541Z,52.60
2022-09-15T07:18:04.002Z,52.40
2022-09-15T07:20:30.478Z,52.50
2022-09-15T07:22:56.961Z,52.50
2022-09-15T07:25:23.434Z,52.60
2022-09-15T07:27:49.909Z,52.50
2022-09-15T07:30:16.400Z,52.60
2022-09-15T07:32:42.882Z,52.80
2022-09-15T07:35:10.506Z,52.70
2022-09-15T07:37:40.666Z,52.70
2022-09-15T07:40:10.571Z,52.70
2022-09-15T07:42:37.142Z,52.50
2022-09-15T07:45:03.616Z,52.60
2022-09-15T07:47:30.074Z,52.60
2022-09-15T07:49:56.560Z,52.70
2022-09-15T07:52:28.709Z,52.80
2022-09-15T07:54:55.196Z,52.80
2022-09-15T07:57:21.705Z,53.00
2022-09-15T07:59:48.194Z,52.80
2022-09-15T08:02:16.546Z,52.80
2022-09-15T08:04:43.080Z,52.70
2022-09-15T08:07:09.546Z,52.60
2022-09-15T08:09:36.035Z,52.60
2022-09-15T08:12:02.500Z,52.70
2022-09-15T08:14:28.982Z,52.70
2022-09-15T08:16:55.474Z,52.70
2022-09-15T08:19:21.994Z,52.80
2022-09-15T08:21:48.469Z,52.70
2022-09-15T08:24:14.963Z,52.80
2022-09-15T08:26:41.450Z,52.90
2022-09-15T08:29:07.944Z,52.70
2022-09-15T08:31:34.571Z,52.70
2022-09-15T08:34:04.564Z,52.80
2022-09-15T08:36:31.034Z,52.80
2022-09-15T08:38:57.510Z,52.90
2022-09-15T08:41:23.998Z,52.90
2022-09-15T08:43:50.473Z,52.80
2022-09-15T08:46:16.980Z,52.80
2022-09-15T08:48:43.490Z,52.70
2022-09-15T08:51:16.576Z,52.90
2022-09-15T08:53:43.060Z,52.90
2022-09-15T08:56:10.191Z,52.90
2022-09-15T08:58:36.751Z,52.80
2022-09-15T09:01:04.544Z,53.00
2022-09-15T09:03:31.031Z,52.90
2022-09-15T09:05:57.513Z,52.80
2022-09-15T09:08:23.998Z,52.80
2022-09-15T09:10:58.809Z,52.80
2022-09-15T09:13:33.327Z,52.90
2022-09-15T09:16:10.677Z,52.90
2022-09-15T09:18:37.223Z,52.80
2022-09-15T09:21:03.704Z,53.00
2022-09-15T09:23:30.203Z,53.00
2022-09-15T09:25:56.691Z,53.10
2022-09-15T09:28:23.186Z,53.00
2022-09-15T09:30:58.739Z,53.10
2022-09-15T09:33:25.233Z,53.10
2022-09-15T09:35:51.737Z,53.00
2022-09-15T09:38:22.621Z,53.10
2022-09-15T09:40:49.094Z,53.00
2022-09-15T09:43:15.585Z,52.90
2022-09-15T09:45:42.209Z,53.10
2022-09-15T09:48:08.731Z,53.30
2022-09-15T09:50:40.643Z,53.30
2022-09-15T09:53:16.611Z,53.40
2022-09-15T09:55:46.640Z,53.20
2022-09-15T10:01:04.653Z,53.00
2022-09-15T10:03:34.647Z,52.90
2022-09-15T10:06:01.139Z,52.90
2022-09-15T10:08:27.637Z,52.90
2022-09-15T10:10:54.098Z,52.70
2022-09-15T10:13:20.615Z,52.70
2022-09-15T10:15:52.745Z,52.60
2022-09-15T10:18:19.231Z,52.60
2022-09-15T10:20:45.705Z,52.40
2022-09-15T10:23:16.823Z,52.60
2022-09-15T10:25:59.248Z,52.50
2022-09-15T10:28:40.652Z,52.30
2022-09-15T10:31:10.650Z,52.30
2022-09-15T10:33:37.139Z,52.10
2022-09-15T10:36:03.623Z,52.20
2022-09-15T10:38:30.124Z,52.20
2022-09-15T10:40:58.626Z,52.10
2022-09-15T10:43:25.129Z,52.10
2022-09-15T10:45:51.654Z,52.20
2022-09-15T10:51:13.429Z,52.10
2022-09-15T10:53:40.628Z,52.10
2022-09-15T10:56:10.734Z,52.00
2022-09-15T10:58:39.020Z,52.10
2022-09-15T11:01:07.611Z,52.10
2022-09-15T11:03:34.178Z,52.10
2022-09-15T11:06:00.662Z,52.00
2022-09-15T11:08:27.152Z,51.90
2022-09-15T11:10:53.637Z,51.90
2022-09-15T11:13:28.890Z,51.90
2022-09-15T11:15:55.455Z,52.00
2022-09-15T11:18:21.971Z,51.90
2022-09-15T11:20:48.467Z,51.90
2022-09-15T11:23:14.931Z,51.90
2022-09-15T11:28:32.204Z,51.80
2022-09-15T11:30:58.714Z,51.90
2022-09-15T11:33:25.189Z,51.90
2022-09-15T11:35:51.662Z,51.90
2022-09-15T11:38:28.742Z,51.90
2022-09-15T11:40:58.702Z,51.90
2022-09-15T11:46:09.333Z,51.90
2022-09-15T11:48:35.839Z,52.00
2022-09-15T11:51:02.305Z,52.00
2022-09-15T11:53:28.778Z,52.00
2022-09-15T11:55:58.726Z,52.10
2022-09-15T11:58:25.213Z,52.10
2022-09-15T12:00:51.702Z,52.00
2022-09-15T12:03:18.209Z,52.00
2022-09-15T12:05:44.718Z,52.10
2022-09-15T12:08:16.889Z,52.10
2022-09-15T12:10:43.373Z,52.10
2022-09-15T12:13:10.689Z,52.00
2022-09-15T12:15:37.298Z,52.00
2022-09-15T12:18:10.829Z,52.00
2022-09-15T12:20:47.800Z,52.10
2022-09-15T12:23:22.776Z,52.20
2022-09-15T12:25:49.254Z,52.10
2022-09-15T12:28:15.744Z,52.20
2022-09-15T12:30:42.221Z,52.10
2022-09-15T12:33:08.718Z,52.20
2022-09-15T12:35:35.209Z,52.10
2022-09-15T12:38:01.699Z,52.00
2022-09-15T12:40:28.242Z,52.10
2022-09-15T12:42:54.753Z,52.10
2022-09-15T12:45:22.773Z,51.90
2022-09-15T12:47:58.918Z,51.90
2022-09-15T12:53:16.283Z,52.00
2022-09-15T12:55:46.775Z,52.00
2022-09-15T12:58:13.232Z,52.00
2022-09-15T13:00:54.738Z,52.00
2022-09-15T13:03:27.100Z,51.90
2022-09-15T13:05:53.598Z,51.90
2022-09-15T13:08:28.940Z,51.90
2022-09-15T13:10:55.436Z,51.90
2022-09-15T13:13:21.898Z,51.90
2022-09-15T13:15:48.466Z,51.80
2022-09-15T13:18:15.011Z,52.00
2022-09-15T13:20:46.801Z,51.90
2022-09-15T13:23:13.281Z,51.90
2022-09-15T13:28:30.115Z,51.80
2022-09-15T13:30:56.668Z,51.90
2022-09-15T13:33:23.366Z,52.00
2022-09-15T13:35:49.874Z,51.90
2022-09-15T13:38:23.804Z,51.80
2022-09-15T13:40:58.807Z,51.70
2022-09-15T13:43:25.291Z,51.70
2022-09-15T13:45:51.819Z,51.80
2022-09-15T13:48:18.303Z,51.90
2022-09-15T13:50:46.829Z,51.70
2022-09-15T13:53:13.300Z,51.70
2022-09-15T13:55:39.778Z,51.70
2022-09-15T14:01:03.529Z,51.70
2022-09-15T14:03:30.060Z,51.70
2022-09-15T14:05:56.553Z,51.70
2022-09-15T14:08:23.035Z,51.70
2022-09-15T14:10:52.830Z,51.60
2022-09-15T14:13:19.298Z,51.50
2022-09-15T14:15:45.803Z,51.60
2022-09-15T14:18:12.278Z,51.50
2022-09-15T14:20:38.752Z,51.50
2022-09-15T14:23:05.218Z,51.50
2022-09-15T14:25:31.754Z,51.50
2022-09-15T14:27:58.249Z,51.30
2022-09-15T14:30:24.742Z,51.20
2022-09-15T14:32:51.211Z,51.20
2022-09-15T14:35:19.687Z,51.20
2022-09-15T14:37:58.880Z,51.10
2022-09-15T14:40:28.994Z,51.20
2022-09-15T14:42:58.889Z,51.20
2022-09-15T14:48:15.324Z,51.20
2022-09-15T14:53:32.465Z,51.10
2022-09-15T14:58:49.583Z,51.10
2022-09-15T15:01:16.082Z,51.20
2022-09-15T15:03:42.578Z,51.20
2022-09-15T15:06:28.483Z,51.30
2022-09-15T15:08:55.655Z,51.30
2022-09-15T15:11:22.138Z,51.30
2022-09-15T15:13:48.591Z,51.30
2022-09-15T15:16:16.934Z,51.20
2022-09-15T15:18:43.485Z,51.20
2022-09-15T15:21:10.906Z,51.20
2022-09-15T15:23:37.367Z,51.00
2022-09-15T15:26:03.876Z,51.00
2022-09-15T15:28:30.343Z,50.90
2022-09-15T15:30:56.809Z,50.90
2022-09-15T15:33:23.294Z,50.90
2022-09-15T15:35:49.770Z,50.80
2022-09-15T15:38:16.863Z,50.80
2022-09-15T15:40:43.345Z,50.80
2022-09-15T15:43:09.816Z,50.90
2022-09-15T15:45:36.382Z,50.90
2022-09-15T15:48:04.878Z,50.80
2022-09-15T15:50:31.365Z,50.90
2022-09-15T15:52:57.827Z,50.80
2022-09-15T15:55:24.340Z,50.80
2022-09-15T15:57:50.803Z,50.70
2022-09-15T16:00:23.063Z,50.80
2022-09-15T16:02:49.547Z,50.80
2022-09-15T16:05:16.885Z,50.80
2022-09-15T16:07:43.364Z,50.80
2022-09-15T16:10:22.958Z,50.80
2022-09-15T16:15:40.444Z,50.90
2022-09-15T16:18:06.919Z,50.90
2022-09-15T16:20:33.402Z,51.00
2022-09-15T16:22:59.895Z,50.90
2022-09-15T16:25:26.416Z,50.80
2022-09-15T16:27:59.038Z,50.90
2022-09-15T16:30:25.545Z,50.80
2022-09-15T16:32:52.026Z,50.80
2022-09-15T16:35:23.175Z,50.90
2022-09-15T16:37:52.978Z,50.90
2022-09-15T16:40:19.506Z,50.70
2022-09-15T16:42:46.023Z,50.70
2022-09-15T16:45:16.942Z,50.90
2022-09-15T16:47:43.426Z,50.70
2022-09-15T16:50:09.889Z,50.70
2022-09-15T16:52:36.384Z,50.70
2022-09-15T16:55:02.853Z,50.80
2022-09-15T16:57:29.329Z,50.90
2022-09-15T16:59:55.821Z,50.90
2022-09-15T17:02:22.379Z,51.00
2022-09-15T17:04:48.922Z,51.00
2022-09-15T17:07:15.430Z,51.10
2022-09-15T17:09:53.010Z,51.10
2022-09-15T17:12:19.500Z,51.10
2022-09-15T17:14:48.807Z,50.90
2022-09-15T17:17:15.281Z,51.00
2022-09-15T17:19:41.744Z,51.00
2022-09-15T17:22:08.241Z,51.00
2022-09-15T17:24:34.742Z,51.10
2022-09-15T17:27:01.211Z,51.00
2022-09-15T17:29:27.685Z,51.00
2022-09-15T17:31:54.147Z,51.00
2022-09-15T17:34:22.974Z,50.80
2022-09-15T17:36:49.456Z,50.90
2022-09-15T17:39:15.924Z,50.80
2022-09-15T17:44:36.979Z,50.90
2022-09-15T17:47:04.247Z,51.00
2022-09-15T17:49:30.712Z,50.90
2022-09-15T17:51:57.216Z,50.80
2022-09-15T17:54:35.078Z,50.80
2022-09-15T17:57:01.554Z,50.80
2022-09-15T17:59:28.975Z,50.80
2022-09-15T18:01:59.110Z,50.90
2022-09-15T18:04:25.645Z,50.90
2022-09-15T18:06:53.037Z,50.70
2022-09-15T18:09:19.509Z,50.80
2022-09-15T18:11:47.114Z,50.60
2022-09-15T18:14:17.044Z,50.60
2022-09-15T18:16:43.516Z,50.50
2022-09-15T18:19:10.006Z,50.50
2022-09-15T18:21:36.465Z,50.50
2022-09-15T18:24:05.010Z,50.40
2022-09-15T18:26:31.491Z,50.40
2022-09-15T18:28:57.955Z,50.50
2022-09-15T18:31:24.546Z,50.40
2022-09-15T18:33:51.073Z,50.40
2022-09-15T18:36:17.561Z,50.30
2022-09-15T18:38:44.046Z,50.30
2022-09-15T18:41:10.542Z,50.20
2022-09-15T18:43:41.100Z,50.10
2022-09-15T18:46:07.619Z,50.10
2022-09-15T18:48:34.126Z,50.00
2022-09-15T18:51:00.597Z,50.00
2022-09-15T18:53:27.067Z,50.00
2022-09-15T18:55:53.541Z,49.70
2022-09-15T18:58:23.068Z,49.70
2022-09-15T19:00:49.598Z,49.80
2022-09-15T19:03:16.093Z,49.70
2022-09-15T19:05:53.096Z,49.60
2022-09-15T19:08:19.565Z,49.80
2022-09-15T19:10:46.037Z,49.70
2022-09-15T19:13:12.514Z,49.80
2022-09-15T19:15:39.028Z,49.70
2022-09-15T19:18:05.514Z,49.60
2022-09-15T19:20:31.971Z,49.60
2022-09-15T19:22:59.106Z,49.50
2022-09-15T19:25:25.583Z,49.40
2022-09-15T19:27:52.073Z,49.40
2022-09-15T19:30:23.266Z,49.20
2022-09-15T19:32:49.726Z,49.20
2022-09-15T19:35:17.054Z,49.40
2022-09-15T19:37:43.554Z,49.60
2022-09-15T19:40:10.147Z,49.50
2022-09-15T19:42:41.121Z,49.50
2022-09-15T19:45:07.593Z,49.30
2022-09-15T19:47:35.123Z,49.10
2022-09-15T19:50:01.610Z,49.10
2022-09-15T19:52:29.123Z,49.20
2022-09-15T19:54:59.311Z,49.40
2022-09-15T19:57:29.136Z,49.30
2022-09-15T19:59:55.609Z,49.20
2022-09-15T20:02:22.183Z,49.30
2022-09-15T20:04:48.696Z,49.10
2022-09-15T20:07:15.173Z,49.10
2022-09-15T20:09:41.636Z,49.00
2022-09-15T20:12:08.161Z,49.20
2022-09-15T20:14:34.664Z,49.10
2022-09-15T20:17:01.679Z,49.10
2022-09-15T20:19:28.386Z,49.10
2022-09-15T20:21:54.873Z,49.20
2022-09-15T20:24:21.360Z,49.20
2022-09-15T20:26:47.847Z,49.00
2022-09-15T20:29:17.118Z,48.90
2022-09-15T20:31:43.627Z,49.00
2022-09-15T20:34:17.282Z,48.90
2022-09-15T20:36:43.784Z,49.00
2022-09-15T20:39:10.253Z,49.00
2022-09-15T20:41:36.764Z,49.00
2022-09-15T20:44:03.247Z,49.10
2022-09-15T20:46:29.750Z,49.10
2022-09-15T20:48:56.233Z,49.10
2022-09-15T20:51:22.705Z,49.20
2022-09-15T20:53:53.276Z,49.00
2022-09-15T20:56:19.845Z,49.20
2022-09-15T20:58:46.352Z,49.20
2022-09-15T21:01:12.920Z,49.10
2022-09-15T21:03:39.448Z,49.10
2022-09-15T21:06:05.926Z,49.00
2022-09-15T21:11:23.555Z,49.00
2022-09-15T21:13:53.356Z,49.00
2022-09-15T21:16:19.829Z,48.90
2022-09-15T21:18:47.206Z,49.10
2022-09-15T21:21:17.391Z,49.00
2022-09-15T21:23:43.924Z,48.90
2022-09-15T21:26:11.156Z,48.80
2022-09-15T21:28:37.631Z,48.80
2022-09-15T21:31:04.093Z,49.00
2022-09-15T21:33:35.216Z,48.90
2022-09-15T21:36:01.704Z,49.10
2022-09-15T21:38:28.180Z,49.20
2022-09-15T21:40:54.668Z,49.10
2022-09-15T21:43:21.154Z,49.00
2022-09-15T21:45:47.698Z,49.00
2022-09-15T21:48:14.196Z,49.00
2022-09-15T21:50:41.168Z,49.10
2022-09-15T21:53:07.662Z,49.20
2022-09-15T21:55:34.151Z,49.10
2022-09-15T21:58:00.638Z,49.00
2022-09-15T22:00:27.119Z,48.90
2022-09-15T22:02:53.611Z,49.00
2022-09-15T22:05:23.400Z,48.90
2022-09-15T22:07:49.871Z,48.90
2022-09-15T22:10:16.323Z,48.90
2022-09-15T22:12:47.243Z,48.90
2022-09-15T22:15:13.707Z,48.80
2022-09-15T22:17:40.175Z,48.90
2022-09-15T22:20:06.646Z,49.00
2022-09-15T22:22:35.245Z,48.90
2022-09-15T22:25:01.745Z,49.00
2022-09-15T22:27:28.239Z,49.10
2022-09-15T22:29:59.440Z,48.90
2022-09-15T22:32:29.252Z,49.20
2022-09-15T22:35:05.416Z,49.20
2022-09-15T22:40:23.290Z,48.80
2022-09-15T22:42:49.794Z,48.70
2022-09-15T22:45:17.227Z,48.50
2022-09-15T22:47:47.270Z,48.50
2022-09-15T22:50:13.745Z,48.80
2022-09-15T22:52:40.230Z,49.00
2022-09-15T22:55:17.474Z,48.90
2022-09-15T22:57:43.961Z,48.90
2022-09-15T23:00:17.397Z,48.90
2022-09-15T23:02:43.886Z,48.90
2022-09-15T23:05:10.357Z,49.20
2022-09-15T23:07:36.843Z,49.00
2022-09-15T23:10:03.336Z,49.00
2022-09-15T23:12:29.806Z,48.80
2022-09-15T23:14:56.272Z,49.00
2022-09-15T23:17:22.751Z,49.00
2022-09-15T23:19:49.232Z,48.90
2022-09-15T23:22:15.712Z,48.90
2022-09-15T23:24:42.197Z,49.10
2022-09-15T23:27:08.685Z,48.90
2022-09-15T23:29:35.144Z,49.00
2022-09-15T23:32:01.642Z,49.10
2022-09-15T23:34:28.121Z,49.30
2022-09-15T23:36:54.605Z,49.20
2022-09-15T23:39:21.088Z,49.10
2022-09-15T23:41:47.568Z,49.10
2022-09-15T23:44:14.056Z,49.10
2022-09-15T23:46:40.639Z,49.00
2022-09-15T23:49:07.160Z,49.10
2022-09-15T23:51:33.671Z,48.90
2022-09-15T23:54:05.405Z,48.90
2022-09-15T23:56:31.879Z,48.60
2022-09-15T23:58:58.354Z,48.50
